Terminal Aerodrome Forecast
Issued by NWS

Home | Current Version | Previous Version | Text Only | Print | Product List | Glossary On
Versions: 1 2 3 4 5 6 7 8 9 10 11 12 13 14
000
FTUS42 KMLB 231700
TAFSFB
TAF
KSFB 231727Z 2318/2418 33004KT P6SM SCT050
     FM232200 09007KT P6SM SCT050
     FM240200 VRB03KT P6SM FEW060 SCT250
     FM241400 30005KT P6SM FEW040=

USA.gov is the U.S. government's official web portal to all federal, state and local government web resources and services.